createdAt,value
2022-10-24T00:00:35.533Z,2.92
2022-10-24T00:03:03.469Z,3.20
2022-10-24T00:05:31.324Z,3.13
2022-10-24T00:08:00.629Z,3.20
2022-10-24T00:10:28.515Z,3.20
2022-10-24T00:12:56.374Z,2.72
2022-10-24T00:15:24.423Z,3.40
2022-10-24T00:17:52.317Z,3.28
2022-10-24T00:20:20.315Z,2.78
2022-10-24T00:22:48.138Z,2.78
2022-10-24T00:25:17.429Z,2.58
2022-10-24T00:27:45.325Z,2.33
2022-10-24T00:30:13.889Z,2.70
2022-10-24T00:32:41.797Z,2.90
2022-10-24T00:35:11.688Z,2.75
2022-10-24T00:37:39.571Z,2.80
2022-10-24T00:40:10.306Z,2.58
2022-10-24T00:42:39.547Z,2.33
2022-10-24T00:45:41.642Z,2.80
2022-10-24T00:48:16.539Z,2.67
2022-10-24T00:50:44.681Z,2.65
2022-10-24T00:53:12.767Z,3.05
2022-10-24T00:55:40.656Z,2.75
2022-10-24T00:58:10.127Z,2.67
2022-10-24T01:00:38.070Z,2.42
2022-10-24T01:03:05.975Z,2.20
2022-10-24T01:05:38.684Z,1.90
2022-10-24T01:08:11.642Z,1.70
2022-10-24T01:13:18.741Z,1.40
2022-10-24T01:15:50.491Z,2.10
2022-10-24T01:18:23.685Z,2.50
2022-10-24T01:21:05.905Z,2.03
2022-10-24T01:24:04.265Z,2.20
2022-10-24T01:26:57.047Z,2.50
2022-10-24T01:29:49.651Z,2.95
2022-10-24T01:32:24.492Z,2.55
2022-10-24T01:35:00.325Z,2.90
2022-10-24T01:37:31.988Z,2.28
2022-10-24T01:40:03.598Z,2.28
2022-10-24T01:42:33.622Z,2.83
2022-10-24T01:45:03.199Z,3.80
2022-10-24T01:47:34.772Z,3.50
2022-10-24T01:50:06.578Z,3.13
2022-10-24T01:52:37.615Z,2.90
2022-10-24T01:55:06.271Z,3.58
2022-10-24T01:57:34.955Z,3.85
2022-10-24T02:00:08.443Z,3.70
2022-10-24T02:02:41.446Z,3.10
2022-10-24T02:05:12.871Z,3.40
2022-10-24T02:07:42.443Z,3.75
2022-10-24T02:10:13.716Z,3.88
2022-10-24T02:12:44.744Z,3.53
2022-10-24T02:15:20.552Z,4.00
2022-10-24T02:17:48.399Z,4.22
2022-10-24T02:20:16.755Z,4.03
2022-10-24T02:22:49.112Z,4.60
2022-10-24T02:25:20.284Z,4.63
2022-10-24T02:27:52.808Z,4.80
2022-10-24T02:30:23.472Z,4.85
2022-10-24T02:32:53.076Z,4.50
2022-10-24T02:35:25.645Z,4.20
2022-10-24T02:37:55.420Z,4.25
2022-10-24T02:40:24.085Z,4.30
2022-10-24T02:42:54.819Z,4.63
2022-10-24T02:45:24.478Z,4.63
2022-10-24T02:47:55.574Z,4.85
2022-10-24T02:50:23.547Z,4.82
2022-10-24T02:52:51.387Z,4.18
2022-10-24T02:55:19.270Z,4.60
2022-10-24T02:57:47.204Z,4.45
2022-10-24T03:00:18.586Z,4.35
2022-10-24T03:02:48.039Z,4.45
2022-10-24T03:05:16.116Z,4.45
2022-10-24T03:07:43.998Z,4.45
2022-10-24T03:10:11.861Z,4.10
2022-10-24T03:12:39.734Z,4.22
2022-10-24T03:15:08.781Z,4.38
2022-10-24T03:17:36.686Z,4.45
2022-10-24T03:20:06.968Z,4.18
2022-10-24T03:22:34.834Z,4.80
2022-10-24T03:25:03.698Z,4.18
2022-10-24T03:27:31.588Z,4.22
2022-10-24T03:30:05.950Z,3.92
2022-10-24T03:32:34.529Z,4.80
2022-10-24T03:35:02.617Z,4.65
2022-10-24T03:37:32.237Z,4.53
2022-10-24T03:40:00.093Z,4.10
2022-10-24T03:42:27.950Z,4.80
2022-10-24T03:44:55.793Z,4.47
2022-10-24T03:47:23.995Z,4.82
2022-10-24T03:49:51.856Z,5.57
2022-10-24T03:52:20.041Z,5.00
2022-10-24T03:54:49.443Z,5.07
2022-10-24T03:57:17.327Z,4.95
2022-10-24T03:59:45.304Z,4.50
2022-10-24T04:02:14.007Z,4.75
2022-10-24T04:04:42.265Z,4.60
2022-10-24T04:07:10.134Z,5.57
2022-10-24T04:09:37.984Z,5.00
2022-10-24T04:12:07.435Z,4.40
2022-10-24T04:14:35.279Z,5.20
2022-10-24T04:17:03.277Z,4.82
2022-10-24T04:19:31.145Z,4.45
2022-10-24T04:21:59.023Z,5.22
2022-10-24T04:24:27.168Z,5.10
2022-10-24T04:26:55.053Z,4.68
2022-10-24T04:29:24.375Z,4.88
2022-10-24T04:31:52.242Z,5.25
2022-10-24T04:34:20.157Z,5.53
2022-10-24T04:36:48.028Z,5.07
2022-10-24T04:39:16.169Z,5.00
2022-10-24T04:41:44.025Z,5.10
2022-10-24T04:44:11.974Z,4.57
2022-10-24T04:46:41.215Z,4.43
2022-10-24T04:49:09.978Z,4.88
2022-10-24T04:51:37.768Z,5.47
2022-10-24T04:54:06.027Z,5.30
2022-10-24T04:56:33.975Z,5.60
2022-10-24T04:59:02.339Z,4.65
2022-10-24T05:01:30.451Z,5.40
2022-10-24T05:03:59.780Z,5.68
2022-10-24T05:06:27.827Z,5.32
2022-10-24T05:08:55.805Z,5.00
2022-10-24T05:11:23.762Z,5.00
2022-10-24T05:13:51.705Z,4.75
2022-10-24T05:16:19.658Z,4.53
2022-10-24T05:18:47.511Z,4.97
2022-10-24T05:21:17.282Z,4.90
2022-10-24T05:23:45.205Z,5.30
2022-10-24T05:26:13.226Z,4.97
2022-10-24T05:28:41.190Z,4.97
2022-10-24T05:31:09.202Z,4.30
2022-10-24T05:33:37.128Z,4.43
2022-10-24T05:36:06.329Z,4.95
2022-10-24T05:38:35.649Z,5.10
2022-10-24T05:41:03.720Z,5.07
2022-10-24T05:43:31.675Z,4.85
2022-10-24T05:45:59.635Z,5.15
2022-10-24T05:48:27.745Z,4.93
2022-10-24T05:50:57.535Z,5.53
2022-10-24T05:53:25.801Z,3.95
2022-10-24T05:55:55.175Z,3.50
2022-10-24T05:58:23.112Z,4.95
2022-10-24T06:00:54.022Z,4.55
2022-10-24T06:03:22.543Z,5.05
2022-10-24T06:05:50.520Z,4.85
2022-10-24T06:08:19.091Z,5.18
2022-10-24T06:10:48.470Z,3.95
2022-10-24T06:13:18.329Z,4.55
2022-10-24T06:15:46.380Z,4.40
2022-10-24T06:18:14.304Z,4.47
2022-10-24T06:20:42.211Z,4.72
2022-10-24T06:23:10.084Z,4.65
2022-10-24T06:25:38.015Z,4.18
2022-10-24T06:30:37.780Z,4.53
2022-10-24T06:33:05.613Z,3.60
2022-10-24T06:35:33.594Z,4.47
2022-10-24T06:38:01.630Z,4.53
2022-10-24T06:40:29.570Z,3.95
2022-10-24T06:42:57.977Z,4.57
2022-10-24T06:45:25.962Z,3.47
2022-10-24T06:47:55.700Z,4.32
2022-10-24T06:50:24.095Z,4.50
2022-10-24T06:52:51.976Z,4.60
2022-10-24T06:55:19.892Z,4.65
2022-10-24T06:57:48.010Z,3.90
2022-10-24T07:00:17.584Z,4.40
2022-10-24T07:02:45.878Z,3.17
2022-10-24T07:05:15.402Z,3.70
2022-10-24T07:07:44.589Z,3.90
2022-10-24T07:10:14.235Z,3.95
2022-10-24T07:12:43.361Z,3.80
2022-10-24T07:15:12.270Z,3.83
2022-10-24T07:17:40.990Z,3.95
2022-10-24T07:20:09.814Z,3.85
2022-10-24T07:22:39.017Z,3.67
2022-10-24T07:25:08.179Z,3.63
2022-10-24T07:27:36.299Z,3.60
2022-10-24T07:30:05.919Z,3.58
2022-10-24T07:32:34.060Z,3.55
2022-10-24T07:35:02.044Z,3.63
2022-10-24T07:37:29.928Z,3.90
2022-10-24T07:39:59.170Z,4.32
2022-10-24T07:42:27.055Z,3.22
2022-10-24T07:44:55.000Z,3.10
2022-10-24T07:47:22.865Z,3.30
2022-10-24T07:49:50.783Z,4.30
2022-10-24T07:52:18.665Z,3.25
2022-10-24T07:54:46.495Z,3.67
2022-10-24T07:57:15.742Z,3.63
2022-10-24T07:59:43.627Z,3.63
2022-10-24T08:02:12.761Z,3.15
2022-10-24T08:04:40.947Z,3.40
2022-10-24T08:07:13.311Z,3.10
2022-10-24T08:09:43.010Z,3.40
2022-10-24T08:12:11.401Z,3.22
2022-10-24T08:14:41.871Z,3.30
2022-10-24T08:17:09.768Z,3.28
2022-10-24T08:19:43.731Z,3.00
2022-10-24T08:22:12.363Z,2.75
2022-10-24T08:24:40.180Z,2.55
2022-10-24T08:27:07.994Z,3.15
2022-10-24T08:29:36.245Z,3.90
2022-10-24T08:32:06.776Z,2.88
2022-10-24T08:34:34.972Z,2.65
2022-10-24T08:37:03.302Z,2.80
2022-10-24T08:39:31.189Z,2.55
2022-10-24T08:42:01.571Z,2.88
2022-10-24T08:44:31.871Z,2.85
2022-10-24T08:47:03.445Z,2.63
2022-10-24T08:49:37.167Z,3.33
2022-10-24T08:52:12.452Z,2.10
2022-10-24T08:54:42.592Z,2.65
2022-10-24T08:57:19.183Z,2.78
2022-10-24T08:59:47.158Z,2.85
2022-10-24T09:02:19.905Z,2.85
2022-10-24T09:07:20.540Z,1.55
2022-10-24T09:09:51.145Z,2.22
2022-10-24T09:12:20.344Z,2.22
2022-10-24T09:14:53.149Z,2.42
2022-10-24T09:19:54.377Z,2.25
2022-10-24T09:22:22.775Z,2.35
2022-10-24T09:24:53.033Z,2.58
2022-10-24T09:27:23.962Z,2.22
2022-10-24T09:29:52.556Z,2.47
2022-10-24T09:32:22.703Z,2.60
2022-10-24T09:34:52.097Z,2.50
2022-10-24T09:37:42.831Z,2.03
2022-10-24T09:40:19.986Z,2.63
2022-10-24T09:42:55.398Z,2.58
2022-10-24T09:45:36.855Z,3.15
2022-10-24T09:48:07.520Z,2.65
2022-10-24T09:50:37.024Z,3.20
2022-10-24T09:53:05.891Z,2.75
2022-10-24T09:55:34.350Z,2.47
2022-10-24T09:58:05.372Z,2.40
2022-10-24T10:00:35.535Z,2.92
2022-10-24T10:03:09.784Z,2.30
2022-10-24T10:05:47.176Z,2.90
2022-10-24T10:08:20.557Z,2.30
2022-10-24T10:11:00.171Z,2.35
2022-10-24T10:13:29.210Z,2.30
2022-10-24T10:15:58.293Z,2.47
2022-10-24T10:18:33.216Z,2.33
2022-10-24T10:21:08.812Z,2.22
2022-10-24T10:23:38.640Z,2.50
2022-10-24T10:26:15.410Z,2.25
2022-10-24T10:28:49.198Z,2.40
2022-10-24T10:31:18.763Z,2.20
2022-10-24T10:33:54.445Z,2.47
2022-10-24T10:36:26.415Z,2.05
2022-10-24T10:39:02.385Z,2.20
2022-10-24T10:41:37.518Z,2.17
2022-10-24T10:44:31.139Z,2.42
2022-10-24T10:47:05.736Z,2.40
2022-10-24T10:49:37.582Z,2.05
2022-10-24T10:52:08.876Z,2.20
2022-10-24T10:54:52.249Z,2.38
2022-10-24T10:57:26.476Z,2.30
2022-10-24T10:59:59.905Z,2.15
2022-10-24T11:02:42.085Z,1.77
2022-10-24T11:05:32.465Z,2.28
2022-10-24T11:08:10.480Z,2.10
2022-10-24T11:10:42.078Z,1.98
2022-10-24T11:13:15.770Z,1.80
2022-10-24T11:15:45.691Z,1.85
2022-10-24T11:18:17.517Z,1.70
2022-10-24T11:20:48.278Z,1.77
2022-10-24T11:23:21.125Z,1.55
2022-10-24T11:25:52.486Z,2.22
2022-10-24T11:28:24.527Z,2.00
2022-10-24T11:30:55.517Z,2.22
2022-10-24T11:33:25.887Z,2.00
2022-10-24T11:36:03.957Z,1.60
2022-10-24T11:38:34.378Z,1.67
2022-10-24T11:41:16.914Z,1.50
2022-10-24T11:43:47.084Z,1.65
2022-10-24T11:46:17.690Z,1.95
2022-10-24T11:51:23.466Z,1.60
2022-10-24T11:53:56.475Z,1.10
2022-10-24T11:56:30.948Z,1.38
2022-10-24T11:59:01.214Z,1.23
2022-10-24T12:01:58.766Z,1.67
2022-10-24T12:05:11.554Z,1.65
2022-10-24T12:08:14.607Z,1.52
2022-10-24T12:10:58.988Z,1.40
2022-10-24T12:13:37.818Z,1.38
2022-10-24T12:16:12.264Z,1.50
2022-10-24T12:18:42.307Z,1.92
2022-10-24T12:21:13.173Z,1.13
2022-10-24T12:23:41.596Z,1.30
2022-10-24T12:26:19.843Z,1.17
2022-10-24T12:28:55.419Z,1.10
2022-10-24T12:31:27.895Z,0.90
2022-10-24T12:37:11.789Z,1.70
2022-10-24T12:39:44.396Z,1.35
2022-10-24T12:42:18.510Z,1.60
2022-10-24T12:44:50.415Z,1.08
2022-10-24T12:47:34.447Z,0.85
2022-10-24T12:50:35.412Z,1.33
2022-10-24T12:53:06.524Z,1.92
2022-10-24T12:56:22.548Z,1.33
2022-10-24T12:59:00.159Z,1.83
2022-10-24T13:01:33.211Z,1.42
2022-10-24T13:04:41.342Z,1.55
2022-10-24T13:07:29.335Z,1.67
2022-10-24T13:10:12.129Z,1.35
2022-10-24T13:13:17.479Z,1.83
2022-10-24T13:15:49.988Z,1.30
2022-10-24T13:18:27.654Z,1.13
2022-10-24T13:21:14.143Z,1.13
2022-10-24T13:23:44.423Z,1.45
2022-10-24T13:26:37.603Z,1.40
2022-10-24T13:29:06.477Z,1.77
2022-10-24T13:31:50.193Z,1.60
2022-10-24T13:34:26.658Z,1.23
2022-10-24T13:37:01.298Z,1.80
2022-10-24T13:39:33.142Z,1.45
2022-10-24T13:42:06.135Z,1.70
2022-10-24T13:44:41.267Z,1.30
2022-10-24T13:47:16.241Z,1.65
2022-10-24T13:49:50.705Z,1.50
2022-10-24T13:52:21.958Z,1.25
2022-10-24T13:54:56.301Z,1.50
2022-10-24T13:57:31.278Z,1.38
2022-10-24T14:00:00.922Z,1.75
2022-10-24T14:02:33.538Z,1.50
2022-10-24T14:05:02.549Z,1.77
2022-10-24T14:07:31.504Z,1.90
2022-10-24T14:10:03.147Z,1.20
2022-10-24T14:12:33.756Z,1.50
2022-10-24T14:15:03.650Z,1.30
2022-10-24T14:17:34.472Z,1.55
2022-10-24T14:20:04.585Z,1.60
2022-10-24T14:22:39.701Z,1.63
2022-10-24T14:25:08.512Z,1.23
2022-10-24T14:27:36.706Z,2.03
2022-10-24T14:30:06.550Z,1.13
2022-10-24T14:32:35.843Z,1.40
2022-10-24T14:35:03.941Z,1.30
2022-10-24T14:37:34.044Z,1.52
2022-10-24T14:40:02.151Z,2.17
2022-10-24T14:42:30.481Z,1.40
2022-10-24T14:44:58.723Z,1.55
2022-10-24T14:47:31.809Z,1.30
2022-10-24T14:50:06.633Z,1.60
2022-10-24T14:52:36.982Z,0.77
2022-10-24T14:55:06.984Z,1.50
2022-10-24T14:57:36.259Z,1.30
2022-10-24T15:00:08.380Z,1.30
2022-10-24T15:02:42.055Z,1.50
2022-10-24T15:05:33.918Z,1.75
2022-10-24T15:08:26.294Z,1.60
2022-10-24T15:11:18.196Z,1.60
2022-10-24T15:14:05.207Z,1.20
2022-10-24T15:16:37.424Z,1.77
2022-10-24T15:19:07.030Z,2.03
2022-10-24T15:21:39.677Z,2.28
2022-10-24T15:24:08.466Z,1.40
2022-10-24T15:26:39.514Z,1.40
2022-10-24T15:29:16.776Z,1.80
2022-10-24T15:31:46.491Z,1.23
2022-10-24T15:34:15.705Z,1.70
2022-10-24T15:36:46.116Z,1.58
2022-10-24T15:39:15.489Z,1.23
2022-10-24T15:41:43.469Z,1.60
2022-10-24T15:44:16.438Z,1.48
2022-10-24T15:46:44.517Z,1.70
2022-10-24T15:49:12.533Z,1.30
2022-10-24T15:51:45.895Z,2.38
2022-10-24T15:54:19.636Z,1.13
2022-10-24T15:56:47.863Z,1.42
2022-10-24T15:59:15.921Z,1.30
2022-10-24T16:01:47.467Z,1.10
2022-10-24T16:04:15.693Z,1.52
2022-10-24T16:06:43.586Z,1.40
2022-10-24T16:09:15.738Z,1.27
2022-10-24T16:11:45.508Z,1.40
2022-10-24T16:14:14.288Z,1.30
2022-10-24T16:16:42.154Z,1.75
2022-10-24T16:19:10.625Z,1.35
2022-10-24T16:21:39.862Z,1.25
2022-10-24T16:24:08.975Z,1.15
2022-10-24T16:26:37.492Z,1.52
2022-10-24T16:29:06.880Z,1.23
2022-10-24T16:31:35.239Z,1.50
2022-10-24T16:34:03.301Z,1.33
2022-10-24T16:36:32.675Z,1.40
2022-10-24T16:39:00.487Z,1.20
2022-10-24T16:41:28.400Z,1.42
2022-10-24T16:43:57.060Z,1.33
2022-10-24T16:46:28.155Z,1.40
2022-10-24T16:48:56.508Z,1.65
2022-10-24T16:51:27.330Z,0.90
2022-10-24T16:53:55.174Z,1.08
2022-10-24T16:56:23.112Z,1.20
2022-10-24T16:58:50.911Z,1.33
2022-10-24T17:01:18.862Z,1.40
2022-10-24T17:03:48.240Z,1.65
2022-10-24T17:06:16.476Z,2.05
2022-10-24T17:08:44.816Z,1.40
2022-10-24T17:11:39.611Z,1.00
2022-10-24T17:14:00.569Z,1.05
2022-10-24T17:16:28.567Z,1.20
2022-10-24T17:19:14.774Z,0.98
2022-10-24T17:21:43.763Z,1.30
2022-10-24T17:24:12.675Z,1.17
2022-10-24T17:26:40.894Z,1.05
2022-10-24T17:29:09.269Z,1.20
2022-10-24T17:31:37.360Z,1.63
2022-10-24T17:34:07.232Z,1.67
2022-10-24T17:36:38.987Z,1.50
2022-10-24T17:39:10.731Z,1.50
2022-10-24T17:41:40.873Z,1.30
2022-10-24T17:44:13.727Z,1.40
2022-10-24T17:46:41.798Z,1.73
2022-10-24T17:49:16.394Z,1.10
2022-10-24T17:51:47.906Z,1.40
2022-10-24T17:54:16.267Z,1.30
2022-10-24T17:56:44.662Z,1.30
2022-10-24T17:59:12.612Z,1.30
2022-10-24T18:01:40.701Z,1.60
2022-10-24T18:04:08.812Z,1.45
2022-10-24T18:06:42.997Z,1.25
2022-10-24T18:09:11.570Z,1.13
2022-10-24T18:11:39.980Z,1.25
2022-10-24T18:14:08.152Z,1.55
2022-10-24T18:16:37.102Z,1.02
2022-10-24T18:19:05.321Z,1.40
2022-10-24T18:21:33.421Z,1.50
2022-10-24T18:24:02.746Z,1.70
2022-10-24T18:26:30.825Z,1.40
2022-10-24T18:28:59.026Z,1.40
2022-10-24T18:31:28.700Z,1.38
2022-10-24T18:33:58.935Z,1.38
2022-10-24T18:36:29.213Z,1.40
2022-10-24T18:38:58.181Z,1.50
2022-10-24T18:41:36.950Z,1.80
2022-10-24T18:44:18.215Z,1.30
2022-10-24T18:46:46.497Z,1.20
2022-10-24T18:49:16.358Z,1.70
2022-10-24T18:51:50.349Z,1.58
2022-10-24T18:56:54.274Z,1.83
2022-10-24T18:59:22.649Z,1.30
2022-10-24T19:01:59.303Z,1.20
2022-10-24T19:04:28.046Z,1.33
2022-10-24T19:06:58.283Z,1.50
2022-10-24T19:09:27.499Z,1.35
2022-10-24T19:11:57.234Z,1.55
2022-10-24T19:14:25.515Z,1.70
2022-10-24T19:16:53.691Z,1.13
2022-10-24T19:19:24.360Z,1.55
2022-10-24T19:21:52.434Z,1.35
2022-10-24T19:24:20.462Z,1.70
2022-10-24T19:26:48.531Z,1.42
2022-10-24T19:29:17.934Z,1.60
2022-10-24T19:31:46.273Z,1.50
2022-10-24T19:34:14.155Z,1.52
2022-10-24T19:36:41.987Z,1.35
2022-10-24T19:39:10.393Z,1.40
2022-10-24T19:41:38.271Z,1.27
2022-10-24T19:44:06.520Z,1.33
2022-10-24T19:46:35.923Z,1.77
2022-10-24T19:49:03.816Z,1.10
2022-10-24T19:51:31.749Z,1.73
2022-10-24T19:53:59.588Z,1.33
2022-10-24T19:56:29.024Z,1.20
2022-10-24T19:58:57.222Z,1.13
2022-10-24T20:01:26.815Z,1.10
2022-10-24T20:03:57.175Z,1.20
2022-10-24T20:06:25.917Z,1.08
2022-10-24T20:08:53.829Z,1.10
2022-10-24T20:11:21.708Z,1.50
2022-10-24T20:13:50.274Z,1.40
2022-10-24T20:16:18.464Z,1.30
2022-10-24T20:18:46.820Z,1.30
2022-10-24T20:21:18.061Z,1.10
2022-10-24T20:23:46.935Z,1.20
2022-10-24T20:26:17.199Z,1.13
2022-10-24T20:28:46.546Z,1.30
2022-10-24T20:31:25.317Z,1.30
2022-10-24T20:33:53.334Z,1.15
2022-10-24T20:36:22.504Z,1.00
2022-10-24T20:38:50.504Z,1.20
2022-10-24T20:41:18.494Z,1.08
2022-10-24T20:43:46.409Z,1.25
2022-10-24T20:46:14.385Z,1.00
2022-10-24T20:48:42.323Z,0.90
2022-10-24T20:51:12.725Z,1.45
2022-10-24T20:53:42.494Z,0.90
2022-10-24T20:56:11.879Z,1.25
2022-10-24T20:58:40.954Z,1.33
2022-10-24T21:01:09.578Z,1.60
2022-10-24T21:03:37.992Z,1.38
2022-10-24T21:06:06.874Z,1.33
2022-10-24T21:08:34.727Z,1.40
2022-10-24T21:11:07.763Z,1.30
2022-10-24T21:13:35.700Z,0.93
2022-10-24T21:16:06.300Z,1.40
2022-10-24T21:18:34.193Z,1.20
2022-10-24T21:21:07.190Z,1.30
2022-10-24T21:23:35.070Z,1.50
2022-10-24T21:26:04.910Z,1.80
2022-10-24T21:28:34.253Z,1.40
2022-10-24T21:31:06.208Z,1.70
2022-10-24T21:33:34.287Z,1.40
2022-10-24T21:36:05.717Z,1.55
2022-10-24T21:38:33.774Z,1.42
2022-10-24T21:41:02.341Z,1.75
2022-10-24T21:43:32.126Z,1.38
2022-10-24T21:46:05.868Z,1.38
2022-10-24T21:48:33.956Z,1.58
2022-10-24T21:51:03.382Z,1.40
2022-10-24T21:53:31.198Z,1.85
2022-10-24T21:56:06.419Z,1.50
2022-10-24T21:58:34.539Z,1.73
2022-10-24T22:01:04.250Z,1.48
2022-10-24T22:03:32.251Z,1.35
2022-10-24T22:06:00.344Z,1.48
2022-10-24T22:08:28.414Z,1.38
2022-10-24T22:10:57.812Z,1.40
2022-10-24T22:13:25.842Z,1.88
2022-10-24T22:15:53.766Z,1.45
2022-10-24T22:18:23.073Z,1.30
2022-10-24T22:20:51.426Z,1.70
2022-10-24T22:23:19.596Z,1.58
2022-10-24T22:25:47.433Z,2.00
2022-10-24T22:28:15.294Z,2.25
2022-10-24T22:30:43.874Z,1.75
2022-10-24T22:33:17.838Z,1.77
2022-10-24T22:35:50.362Z,1.77
2022-10-24T22:38:18.594Z,1.77
2022-10-24T22:40:47.266Z,2.00
2022-10-24T22:43:15.655Z,1.75
2022-10-24T22:45:48.874Z,1.92
2022-10-24T22:48:20.562Z,1.77
2022-10-24T22:50:52.219Z,1.90
2022-10-24T22:53:22.260Z,1.88
2022-10-24T22:56:03.947Z,2.00
2022-10-24T22:58:32.403Z,2.03
2022-10-24T23:01:03.347Z,2.03
2022-10-24T23:03:37.571Z,2.10
2022-10-24T23:06:13.311Z,2.30
2022-10-24T23:08:43.809Z,2.38
2022-10-24T23:11:12.939Z,2.65
2022-10-24T23:13:41.434Z,2.30
2022-10-24T23:16:16.160Z,2.17
2022-10-24T23:18:44.523Z,2.35
2022-10-24T23:21:29.336Z,2.67
2022-10-24T23:23:57.711Z,2.33
2022-10-24T23:26:34.141Z,2.25
2022-10-24T23:29:07.642Z,2.45
2022-10-24T23:31:36.022Z,2.60
2022-10-24T23:34:04.426Z,2.22
2022-10-24T23:36:34.423Z,2.40
2022-10-24T23:39:02.819Z,2.15
2022-10-24T23:41:31.106Z,2.40
2022-10-24T23:43:59.523Z,2.30
2022-10-24T23:46:31.751Z,1.90
2022-10-24T23:49:10.713Z,2.58
2022-10-24T23:51:43.196Z,2.13
2022-10-24T23:54:12.771Z,2.47
2022-10-24T23:56:41.233Z,2.20
2022-10-24T23:59:09.066Z,2.13
